createdAt,value
2018-07-21T00:04:34.288Z,100515.70
2018-07-21T00:09:29.945Z,100524.69
2018-07-21T00:14:24.903Z,100526.00
2018-07-21T00:19:19.830Z,100524.02
2018-07-21T00:24:15.161Z,100514.72
2018-07-21T00:29:11.726Z,100505.47
2018-07-21T00:34:07.139Z,100505.79
2018-07-21T00:39:01.770Z,100496.98
2018-07-21T00:43:56.266Z,100501.34
2018-07-21T00:48:51.209Z,100505.01
2018-07-21T00:53:46.099Z,100511.36
2018-07-21T00:58:41.752Z,100507.45
2018-07-21T01:08:30.539Z,100519.94
2018-07-21T01:13:25.150Z,100526.14
2018-07-21T01:18:19.667Z,100523.92
2018-07-21T01:23:14.100Z,100520.16
2018-07-21T01:28:09.056Z,100507.84
2018-07-21T01:33:03.560Z,100498.73
2018-07-21T01:37:58.028Z,100510.80
2018-07-21T01:42:54.076Z,100500.68
2018-07-21T01:47:49.781Z,100502.66
2018-07-21T01:52:45.318Z,100504.31
2018-07-21T01:57:40.817Z,100496.67
2018-07-21T02:02:35.884Z,100488.33
2018-07-21T02:07:31.069Z,100489.77
2018-07-21T02:12:26.409Z,100487.86
2018-07-21T02:17:21.524Z,100491.49
2018-07-21T02:22:16.670Z,100480.51
2018-07-21T02:27:11.787Z,100479.42
2018-07-21T02:32:06.858Z,100471.66
2018-07-21T02:37:01.634Z,100479.47
2018-07-21T02:41:56.921Z,100467.67
2018-07-21T02:46:51.634Z,100460.20
2018-07-21T02:51:46.967Z,100463.83
2018-07-21T02:56:42.777Z,100468.63
2018-07-21T03:01:38.090Z,100481.99
2018-07-21T03:06:32.935Z,100483.95
2018-07-21T03:11:28.884Z,100478.39
2018-07-21T03:16:23.946Z,100478.48
2018-07-21T03:21:19.308Z,100477.59
2018-07-21T03:26:13.875Z,100470.48
2018-07-21T03:31:09.492Z,100468.77
2018-07-21T03:36:04.814Z,100470.53
2018-07-21T03:40:59.768Z,100472.39
2018-07-21T03:45:54.818Z,100472.17
2018-07-21T03:50:50.667Z,100478.55
2018-07-21T03:55:46.823Z,100485.41
2018-07-21T04:00:42.221Z,100477.36
2018-07-21T04:05:37.448Z,100484.85
2018-07-21T04:10:33.383Z,100489.66
2018-07-21T04:15:28.297Z,100495.17
2018-07-21T04:20:23.799Z,100498.72
2018-07-21T04:25:20.185Z,100504.94
2018-07-21T04:30:15.946Z,100497.22
2018-07-21T04:35:11.942Z,100504.98
2018-07-21T04:40:08.126Z,100509.89
2018-07-21T04:45:04.022Z,100508.22
2018-07-21T04:49:59.181Z,100518.09
2018-07-21T04:54:54.520Z,100528.49
2018-07-21T04:59:50.075Z,100525.17
2018-07-21T05:04:44.669Z,100528.05
2018-07-21T05:09:40.543Z,100531.92
2018-07-21T05:14:35.679Z,100537.33
2018-07-21T05:19:31.629Z,100539.97
2018-07-21T05:24:27.050Z,100534.22
2018-07-21T05:29:21.590Z,100536.73
2018-07-21T05:34:16.079Z,100540.25
2018-07-21T05:39:12.011Z,100542.27
2018-07-21T05:44:07.879Z,100548.28
2018-07-21T05:49:03.947Z,100544.47
2018-07-21T05:53:59.019Z,100555.44
2018-07-21T05:58:54.714Z,100565.87
2018-07-21T06:03:52.428Z,100565.69
2018-07-21T06:08:47.834Z,100565.52
2018-07-21T06:13:42.827Z,100570.50
2018-07-21T06:18:37.626Z,100582.23
2018-07-21T06:23:33.166Z,100571.68
2018-07-21T06:28:29.089Z,100584.41
2018-07-21T06:33:25.045Z,100583.59
2018-07-21T06:38:20.523Z,100592.70
2018-07-21T06:43:16.293Z,100600.59
2018-07-21T06:48:12.228Z,100598.92
2018-07-21T06:53:07.607Z,100599.14
2018-07-21T06:58:03.982Z,100598.50
2018-07-21T07:02:59.916Z,100598.08
2018-07-21T07:07:55.051Z,100592.82
2018-07-21T07:12:50.576Z,100601.56
2018-07-21T07:17:46.652Z,100601.68
2018-07-21T07:22:41.979Z,100601.80
2018-07-21T07:27:37.656Z,100605.24
2018-07-21T07:32:33.002Z,100600.41
2018-07-21T07:37:28.607Z,100599.64
2018-07-21T07:42:23.375Z,100599.06
2018-07-21T07:47:18.504Z,100594.78
2018-07-21T07:52:13.541Z,100587.04
2018-07-21T07:57:10.978Z,100580.89
2018-07-21T08:02:06.068Z,100577.23
2018-07-21T08:07:01.356Z,100580.31
2018-07-21T08:11:56.457Z,100577.47
2018-07-21T08:16:51.826Z,100576.50
2018-07-21T08:21:46.751Z,100571.12
2018-07-21T08:26:42.708Z,100571.42
2018-07-21T08:31:37.864Z,100564.47
2018-07-21T08:36:33.844Z,100568.55
2018-07-21T08:41:29.296Z,100567.57
2018-07-21T08:46:24.417Z,100563.33
2018-07-21T08:51:20.071Z,100566.73
2018-07-21T08:56:14.937Z,100561.80
2018-07-21T09:01:10.370Z,100560.75
2018-07-21T09:06:05.523Z,100563.23
2018-07-21T09:11:00.834Z,100554.40
2018-07-21T09:15:56.321Z,100551.69
2018-07-21T09:20:51.835Z,100554.41
2018-07-21T09:25:46.910Z,100544.03
2018-07-21T09:30:42.669Z,100548.03
2018-07-21T09:35:38.431Z,100546.73
2018-07-21T09:40:33.504Z,100543.58
2018-07-21T09:45:29.017Z,100546.73
2018-07-21T09:50:24.126Z,100553.20
2018-07-21T09:55:19.490Z,100546.66
2018-07-21T10:00:18.901Z,100544.28
2018-07-21T10:05:14.280Z,100545.34
2018-07-21T10:10:09.040Z,100546.83
2018-07-21T10:15:04.321Z,100536.89
2018-07-21T10:19:59.282Z,100531.87
2018-07-21T10:24:59.627Z,100524.75
2018-07-21T10:29:55.095Z,100529.98
2018-07-21T10:34:50.323Z,100524.35
2018-07-21T10:39:46.074Z,100523.61
2018-07-21T10:44:41.606Z,100521.70
2018-07-21T10:49:36.414Z,100517.30
2018-07-21T10:54:32.912Z,100519.52
2018-07-21T10:59:28.671Z,100514.24
2018-07-21T11:04:24.130Z,100508.37
2018-07-21T11:09:19.431Z,100506.61
2018-07-21T11:14:15.127Z,100510.16
2018-07-21T11:19:10.679Z,100504.58
2018-07-21T11:24:05.865Z,100502.42
2018-07-21T11:29:00.424Z,100502.38
2018-07-21T11:33:55.429Z,100503.84
2018-07-21T11:38:51.766Z,100508.95
2018-07-21T11:43:47.200Z,100506.46
2018-07-21T11:48:42.361Z,100505.59
2018-07-21T11:53:37.720Z,100503.97
2018-07-21T11:58:32.581Z,100504.69
2018-07-21T12:03:28.243Z,100515.30
2018-07-21T12:08:23.823Z,100515.87
2018-07-21T12:13:18.755Z,100514.94
2018-07-21T12:18:14.765Z,100513.91
2018-07-21T12:23:10.083Z,100521.43
2018-07-21T12:28:05.470Z,100510.70
2018-07-21T12:33:00.900Z,100505.45
2018-07-21T12:37:56.483Z,100509.67
2018-07-21T12:42:52.416Z,100504.22
2018-07-21T12:47:47.452Z,100503.61
2018-07-21T12:52:44.210Z,100503.20
2018-07-21T12:57:39.118Z,100498.68
2018-07-21T13:02:36.198Z,100495.38
2018-07-21T13:07:31.218Z,100491.39
2018-07-21T13:12:26.827Z,100494.86
2018-07-21T13:17:22.098Z,100489.89
2018-07-21T13:22:17.201Z,100477.42
2018-07-21T13:27:12.079Z,100480.36
2018-07-21T13:32:06.862Z,100470.32
2018-07-21T13:37:01.617Z,100471.03
2018-07-21T13:41:56.998Z,100471.13
2018-07-21T13:46:52.836Z,100481.98
2018-07-21T13:51:48.547Z,100475.05
2018-07-21T13:56:44.153Z,100469.94
2018-07-21T14:01:40.122Z,100468.94
2018-07-21T14:06:35.434Z,100463.73
2018-07-21T14:11:30.716Z,100465.66
2018-07-21T14:16:26.180Z,100462.76
2018-07-21T14:21:21.552Z,100461.59
2018-07-21T14:26:16.748Z,100468.02
2018-07-21T14:31:11.869Z,100469.19
2018-07-21T14:36:07.703Z,100472.27
2018-07-21T14:41:03.866Z,100471.51
2018-07-21T14:45:59.237Z,100474.02
2018-07-21T14:50:54.829Z,100474.85
2018-07-21T14:55:49.902Z,100483.63
2018-07-21T15:00:45.624Z,100482.13
2018-07-21T15:05:41.438Z,100477.11
2018-07-21T15:10:39.608Z,100476.45
2018-07-21T15:15:35.911Z,100473.04
2018-07-21T15:20:31.554Z,100470.32
2018-07-21T15:25:27.932Z,100468.72
2018-07-21T15:30:23.070Z,100470.14
2018-07-21T15:35:18.628Z,100460.20
2018-07-21T15:40:14.085Z,100459.34
2018-07-21T15:45:09.602Z,100462.48
2018-07-21T15:50:05.153Z,100464.09
2018-07-21T15:54:59.913Z,100466.19
2018-07-21T15:59:54.633Z,100464.65
2018-07-21T16:04:49.533Z,100479.12
2018-07-21T16:09:44.084Z,100475.55
2018-07-21T16:14:38.847Z,100485.99
2018-07-21T16:19:34.336Z,100488.09
2018-07-21T16:24:30.564Z,100488.36
2018-07-21T16:29:26.214Z,100491.02
2018-07-21T16:34:24.396Z,100495.66
2018-07-21T16:39:19.683Z,100499.58
2018-07-21T16:44:14.753Z,100498.91
2018-07-21T16:49:09.926Z,100499.10
2018-07-21T16:54:05.455Z,100502.25
2018-07-21T16:59:00.248Z,100505.36
2018-07-21T17:03:55.342Z,100500.09
2018-07-21T17:08:49.688Z,100506.97
2018-07-21T17:13:44.538Z,100505.57
2018-07-21T17:18:39.742Z,100499.27
2018-07-21T17:23:35.094Z,100508.04
2018-07-21T17:28:29.837Z,100506.17
2018-07-21T17:33:24.734Z,100501.80
2018-07-21T17:38:19.405Z,100500.73
2018-07-21T17:43:14.355Z,100500.29
2018-07-21T17:48:09.476Z,100511.24
2018-07-21T17:53:04.860Z,100509.23
2018-07-21T17:57:59.596Z,100514.02
2018-07-21T18:02:55.222Z,100507.82
2018-07-21T18:07:49.884Z,100518.27
2018-07-21T18:12:44.656Z,100517.67
2018-07-21T18:17:39.104Z,100526.97
2018-07-21T18:22:34.054Z,100524.53
2018-07-21T18:27:28.898Z,100531.95
2018-07-21T18:32:23.242Z,100531.66
2018-07-21T18:37:17.734Z,100541.67
2018-07-21T18:42:12.459Z,100548.50
2018-07-21T18:47:06.728Z,100556.31
2018-07-21T18:52:01.259Z,100570.09
2018-07-21T18:56:56.220Z,100566.56
2018-07-21T19:01:50.809Z,100574.07
2018-07-21T19:06:45.323Z,100571.63
2018-07-21T19:11:39.875Z,100573.81
2018-07-21T19:16:43.062Z,100566.02
2018-07-21T19:21:37.754Z,100562.27
2018-07-21T19:26:37.703Z,100563.75
2018-07-21T19:31:32.184Z,100572.09
2018-07-21T19:36:26.974Z,100569.00
2018-07-21T19:41:26.554Z,100579.22
2018-07-21T19:46:20.838Z,100584.54
2018-07-21T19:51:15.513Z,100596.27
2018-07-21T19:56:10.216Z,100603.08
2018-07-21T20:01:04.770Z,100607.50
2018-07-21T20:05:59.644Z,100605.36
2018-07-21T20:10:54.217Z,100617.42
2018-07-21T20:15:48.960Z,100622.03
2018-07-21T20:20:43.592Z,100623.26
2018-07-21T20:25:38.532Z,100629.85
2018-07-21T20:30:33.121Z,100622.27
2018-07-21T20:35:28.174Z,100627.18
2018-07-21T20:40:22.452Z,100625.50
2018-07-21T20:45:17.166Z,100633.11
2018-07-21T20:50:11.996Z,100629.75
2018-07-21T20:55:07.517Z,100644.44
2018-07-21T21:00:02.285Z,100649.17
2018-07-21T21:04:56.704Z,100649.00
2018-07-21T21:09:51.440Z,100654.22
2018-07-21T21:14:46.028Z,100656.06
2018-07-21T21:19:40.483Z,100654.23
2018-07-21T21:24:34.977Z,100648.78
2018-07-21T21:29:29.569Z,100650.98
2018-07-21T21:34:23.786Z,100649.45
2018-07-21T21:39:18.346Z,100652.67
2018-07-21T21:44:12.853Z,100653.67
2018-07-21T21:49:07.542Z,100657.71
2018-07-21T21:54:02.170Z,100662.78
2018-07-21T21:58:56.811Z,100664.46
2018-07-21T22:03:51.331Z,100662.94
2018-07-21T22:08:45.991Z,100661.78
2018-07-21T22:13:40.446Z,100671.06
2018-07-21T22:18:35.250Z,100674.94
2018-07-21T22:23:29.454Z,100675.60
2018-07-21T22:28:23.830Z,100684.72
2018-07-21T22:33:18.350Z,100684.36
2018-07-21T22:38:12.619Z,100684.89
2018-07-21T22:43:07.122Z,100690.95
2018-07-21T22:48:01.722Z,100695.16
2018-07-21T22:52:56.334Z,100697.33
2018-07-21T22:57:51.218Z,100696.51
2018-07-21T23:02:45.750Z,100704.61
2018-07-21T23:07:40.281Z,100702.08
2018-07-21T23:12:35.066Z,100700.20
2018-07-21T23:17:29.536Z,100705.44
2018-07-21T23:22:24.067Z,100708.96
2018-07-21T23:27:18.562Z,100714.33
2018-07-21T23:32:13.059Z,100718.54
2018-07-21T23:37:07.728Z,100713.15
2018-07-21T23:42:02.254Z,100720.91
2018-07-21T23:46:56.915Z,100720.72
2018-07-21T23:51:51.571Z,100720.22
2018-07-21T23:56:45.869Z,100719.03
